sensor_id;sensor_type;location;lat;lon;timestamp;temperature;humidity
26272;DHT22;13997;48.902;12.472;2023-11-19T00:01:33;103.30;2227.20
26272;DHT22;13997;48.902;12.472;2023-11-19T00:03:58;103.30;2227.20
26272;DHT22;13997;48.902;12.472;2023-11-19T00:06:24;103.30;2227.20
26272;DHT22;13997;48.902;12.472;2023-11-19T00:08:51;103.30;2227.20
26272;DHT22;13997;48.902;12.472;2023-11-19T00:11:16;103.30;2227.20
26272;DHT22;13997;48.902;12.472;2023-11-19T00:13:42;103.30;2227.20
26272;DHT22;13997;48.902;12.472;2023-11-19T00:16:08;103.30;2227.20
26272;DHT22;13997;48.902;12.472;2023-11-19T00:18:35;103.30;2227.20
26272;DHT22;13997;48.902;12.472;2023-11-19T00:21:01;103.30;2227.20
26272;DHT22;13997;48.902;12.472;2023-11-19T00:23:28;103.30;2227.20
26272;DHT22;13997;48.902;12.472;2023-11-19T00:25:53;103.30;2227.20
26272;DHT22;13997;48.902;12.472;2023-11-19T00:28:19;103.30;2227.20
26272;DHT22;13997;48.902;12.472;2023-11-19T00:30:44;103.30;2227.20
26272;DHT22;13997;48.902;12.472;2023-11-19T00:33:10;103.30;2227.20
26272;DHT22;13997;48.902;12.472;2023-11-19T00:35:36;103.30;2227.20
26272;DHT22;13997;48.902;12.472;2023-11-19T00:38:01;103.30;2227.20
26272;DHT22;13997;48.902;12.472;2023-11-19T00:40:28;103.30;2227.20
26272;DHT22;13997;48.902;12.472;2023-11-19T00:42:54;103.30;2227.20
26272;DHT22;13997;48.902;12.472;2023-11-19T00:45:19;103.30;2227.20
26272;DHT22;13997;48.902;12.472;2023-11-19T00:47:45;103.30;2227.20
26272;DHT22;13997;48.902;12.472;2023-11-19T00:50:11;103.30;2227.20
26272;DHT22;13997;48.902;12.472;2023-11-19T00:52:37;103.30;2227.20
26272;DHT22;13997;48.902;12.472;2023-11-19T00:55:03;103.30;2227.20
26272;DHT22;13997;48.902;12.472;2023-11-19T00:57:32;103.30;2227.20
26272;DHT22;13997;48.902;12.472;2023-11-19T00:59:59;103.30;2227.20
26272;DHT22;13997;48.902;12.472;2023-11-19T01:02:25;103.30;2227.20
26272;DHT22;13997;48.902;12.472;2023-11-19T01:04:50;103.30;2227.20
26272;DHT22;13997;48.902;12.472;2023-11-19T01:07:16;103.30;2227.20
26272;DHT22;13997;48.902;12.472;2023-11-19T01:09:42;103.30;2227.20
26272;DHT22;13997;48.902;12.472;2023-11-19T01:12:08;103.20;2227.20
26272;DHT22;13997;48.902;12.472;2023-11-19T01:14:35;103.30;2227.20
26272;DHT22;13997;48.902;12.472;2023-11-19T01:17:01;103.30;2227.20
26272;DHT22;13997;48.902;12.472;2023-11-19T01:19:27;103.30;2227.20
26272;DHT22;13997;48.902;12.472;2023-11-19T01:21:54;103.20;2227.20
26272;DHT22;13997;48.902;12.472;2023-11-19T01:24:19;103.20;2227.20
26272;DHT22;13997;48.902;12.472;2023-11-19T01:26:45;103.20;2227.20
26272;DHT22;13997;48.902;12.472;2023-11-19T01:29:15;103.20;2227.20
26272;DHT22;13997;48.902;12.472;2023-11-19T01:31:46;103.20;2227.20
26272;DHT22;13997;48.902;12.472;2023-11-19T01:34:12;103.20;2227.20
26272;DHT22;13997;48.902;12.472;2023-11-19T01:36:37;103.20;2227.20
26272;DHT22;13997;48.902;12.472;2023-11-19T01:39:03;103.20;2227.20
26272;DHT22;13997;48.902;12.472;2023-11-19T01:41:35;103.20;2227.20
26272;DHT22;13997;48.902;12.472;2023-11-19T01:44:01;103.20;2227.20
26272;DHT22;13997;48.902;12.472;2023-11-19T01:46:27;103.20;2227.20
26272;DHT22;13997;48.902;12.472;2023-11-19T01:48:53;103.20;2227.20
26272;DHT22;13997;48.902;12.472;2023-11-19T01:51:19;103.20;2227.20
26272;DHT22;13997;48.902;12.472;2023-11-19T01:53:47;103.20;2227.20
26272;DHT22;13997;48.902;12.472;2023-11-19T01:56:15;103.20;2227.20
26272;DHT22;13997;48.902;12.472;2023-11-19T01:58:42;103.20;2227.20
26272;DHT22;13997;48.902;12.472;2023-11-19T02:01:09;103.20;2227.20
26272;DHT22;13997;48.902;12.472;2023-11-19T02:03:36;103.20;2227.20
26272;DHT22;13997;48.902;12.472;2023-11-19T02:06:03;103.20;2227.20
26272;DHT22;13997;48.902;12.472;2023-11-19T02:08:29;103.20;2227.20
26272;DHT22;13997;48.902;12.472;2023-11-19T02:10:55;103.20;2227.20
26272;DHT22;13997;48.902;12.472;2023-11-19T02:13:26;103.20;2227.20
26272;DHT22;13997;48.902;12.472;2023-11-19T02:15:52;103.20;2227.20
26272;DHT22;13997;48.902;12.472;2023-11-19T02:18:25;103.20;2227.20
26272;DHT22;13997;48.902;12.472;2023-11-19T02:20:54;103.20;2227.20
26272;DHT22;13997;48.902;12.472;2023-11-19T02:23:20;103.20;2227.20
26272;DHT22;13997;48.902;12.472;2023-11-19T02:25:52;103.20;2227.20
26272;DHT22;13997;48.902;12.472;2023-11-19T02:28:20;103.20;2227.20
26272;DHT22;13997;48.902;12.472;2023-11-19T02:30:46;103.20;2227.20
26272;DHT22;13997;48.902;12.472;2023-11-19T02:33:12;103.20;2227.20
26272;DHT22;13997;48.902;12.472;2023-11-19T02:35:38;103.20;2227.20
26272;DHT22;13997;48.902;12.472;2023-11-19T02:38:03;103.20;2227.20
26272;DHT22;13997;48.902;12.472;2023-11-19T02:40:29;103.10;2227.20
26272;DHT22;13997;48.902;12.472;2023-11-19T02:42:55;103.20;2227.20
26272;DHT22;13997;48.902;12.472;2023-11-19T02:45:23;103.10;2227.20
26272;DHT22;13997;48.902;12.472;2023-11-19T02:47:49;103.10;2227.20
26272;DHT22;13997;48.902;12.472;2023-11-19T02:50:16;103.10;2227.20
26272;DHT22;13997;48.902;12.472;2023-11-19T02:52:42;103.10;2227.20
26272;DHT22;13997;48.902;12.472;2023-11-19T02:55:09;103.10;2227.20
26272;DHT22;13997;48.902;12.472;2023-11-19T02:57:40;103.10;2227.20
26272;DHT22;13997;48.902;12.472;2023-11-19T03:00:14;103.10;2227.20
26272;DHT22;13997;48.902;12.472;2023-11-19T03:02:40;103.10;2227.20
26272;DHT22;13997;48.902;12.472;2023-11-19T03:05:25;103.00;2227.20
26272;DHT22;13997;48.902;12.472;2023-11-19T03:07:51;103.00;2227.20
26272;DHT22;13997;48.902;12.472;2023-11-19T03:10:17;103.00;2227.20
26272;DHT22;13997;48.902;12.472;2023-11-19T03:12:44;103.00;2227.20
26272;DHT22;13997;48.902;12.472;2023-11-19T03:15:10;103.00;2227.20
26272;DHT22;13997;48.902;12.472;2023-11-19T03:17:39;103.00;2227.20
26272;DHT22;13997;48.902;12.472;2023-11-19T03:20:07;103.00;2227.20
26272;DHT22;13997;48.902;12.472;2023-11-19T03:22:36;103.00;2227.20
26272;DHT22;13997;48.902;12.472;2023-11-19T03:25:02;102.90;2227.20
26272;DHT22;13997;48.902;12.472;2023-11-19T03:27:27;102.90;2227.20
26272;DHT22;13997;48.902;12.472;2023-11-19T03:29:53;102.90;2227.20
26272;DHT22;13997;48.902;12.472;2023-11-19T03:32:18;102.90;2227.20
26272;DHT22;13997;48.902;12.472;2023-11-19T03:34:45;102.90;2227.20
26272;DHT22;13997;48.902;12.472;2023-11-19T03:37:11;102.90;2227.20
26272;DHT22;13997;48.902;12.472;2023-11-19T03:39:36;102.90;2227.20
26272;DHT22;13997;48.902;12.472;2023-11-19T03:42:02;102.90;2227.20
26272;DHT22;13997;48.902;12.472;2023-11-19T03:44:28;102.90;2227.20
26272;DHT22;13997;48.902;12.472;2023-11-19T03:46:54;102.90;2227.20
26272;DHT22;13997;48.902;12.472;2023-11-19T03:49:20;102.90;2227.20
26272;DHT22;13997;48.902;12.472;2023-11-19T03:51:45;102.90;2227.20
26272;DHT22;13997;48.902;12.472;2023-11-19T03:54:11;102.90;2227.20
26272;DHT22;13997;48.902;12.472;2023-11-19T03:56:37;102.90;2227.20
26272;DHT22;13997;48.902;12.472;2023-11-19T03:59:03;102.90;2227.20
26272;DHT22;13997;48.902;12.472;2023-11-19T04:01:28;102.90;2227.20
26272;DHT22;13997;48.902;12.472;2023-11-19T04:03:54;102.90;2227.20
26272;DHT22;13997;48.902;12.472;2023-11-19T04:06:21;102.90;2227.20
26272;DHT22;13997;48.902;12.472;2023-11-19T04:08:47;102.90;2227.20
26272;DHT22;13997;48.902;12.472;2023-11-19T04:11:12;102.90;2227.20
26272;DHT22;13997;48.902;12.472;2023-11-19T04:13:38;102.90;2227.20
26272;DHT22;13997;48.902;12.472;2023-11-19T04:16:04;102.90;2227.20
26272;DHT22;13997;48.902;12.472;2023-11-19T04:18:29;102.90;2227.20
26272;DHT22;13997;48.902;12.472;2023-11-19T04:20:55;102.90;2227.20
26272;DHT22;13997;48.902;12.472;2023-11-19T04:23:21;102.90;2227.20
26272;DHT22;13997;48.902;12.472;2023-11-19T04:25:47;102.90;2227.20
26272;DHT22;13997;48.902;12.472;2023-11-19T04:28:12;102.90;2227.20
26272;DHT22;13997;48.902;12.472;2023-11-19T04:30:38;102.90;2227.20
26272;DHT22;13997;48.902;12.472;2023-11-19T04:33:03;102.90;2227.20
26272;DHT22;13997;48.902;12.472;2023-11-19T04:35:29;102.90;2227.20
26272;DHT22;13997;48.902;12.472;2023-11-19T04:37:55;102.90;2227.20
26272;DHT22;13997;48.902;12.472;2023-11-19T04:40:22;102.90;2227.20
26272;DHT22;13997;48.902;12.472;2023-11-19T04:42:48;102.90;2227.20
26272;DHT22;13997;48.902;12.472;2023-11-19T04:45:14;102.90;2227.20
26272;DHT22;13997;48.902;12.472;2023-11-19T04:47:42;102.80;2227.20
26272;DHT22;13997;48.902;12.472;2023-11-19T04:50:07;102.80;2227.20
26272;DHT22;13997;48.902;12.472;2023-11-19T04:52:38;102.80;2227.20
26272;DHT22;13997;48.902;12.472;2023-11-19T04:55:05;102.80;2227.20
26272;DHT22;13997;48.902;12.472;2023-11-19T04:57:31;102.80;2227.20
26272;DHT22;13997;48.902;12.472;2023-11-19T04:59:58;102.80;2227.20
26272;DHT22;13997;48.902;12.472;2023-11-19T05:02:23;102.80;2227.20
26272;DHT22;13997;48.902;12.472;2023-11-19T05:04:49;102.80;2227.20
26272;DHT22;13997;48.902;12.472;2023-11-19T05:07:15;102.80;2227.20
26272;DHT22;13997;48.902;12.472;2023-11-19T05:09:40;102.80;2227.20
26272;DHT22;13997;48.902;12.472;2023-11-19T05:12:06;102.80;2227.20
26272;DHT22;13997;48.902;12.472;2023-11-19T05:14:35;102.80;2227.20
26272;DHT22;13997;48.902;12.472;2023-11-19T05:17:01;102.80;2227.20
26272;DHT22;13997;48.902;12.472;2023-11-19T05:19:26;102.80;2227.20
26272;DHT22;13997;48.902;12.472;2023-11-19T05:21:52;102.80;2227.20
26272;DHT22;13997;48.902;12.472;2023-11-19T05:24:17;102.80;2227.20
26272;DHT22;13997;48.902;12.472;2023-11-19T05:26:43;102.80;2227.20
26272;DHT22;13997;48.902;12.472;2023-11-19T05:29:09;102.70;2227.20
26272;DHT22;13997;48.902;12.472;2023-11-19T05:31:34;102.70;2227.20
26272;DHT22;13997;48.902;12.472;2023-11-19T05:34:00;102.70;2227.20
26272;DHT22;13997;48.902;12.472;2023-11-19T05:36:25;102.70;2227.20
26272;DHT22;13997;48.902;12.472;2023-11-19T05:38:53;102.70;2227.20
26272;DHT22;13997;48.902;12.472;2023-11-19T05:41:18;102.70;2227.20
26272;DHT22;13997;48.902;12.472;2023-11-19T05:43:44;102.70;2227.20
26272;DHT22;13997;48.902;12.472;2023-11-19T05:46:09;102.70;2227.20
26272;DHT22;13997;48.902;12.472;2023-11-19T05:48:35;102.80;2227.20
26272;DHT22;13997;48.902;12.472;2023-11-19T05:51:01;102.80;2227.20
26272;DHT22;13997;48.902;12.472;2023-11-19T05:53:26;102.80;2227.20
26272;DHT22;13997;48.902;12.472;2023-11-19T05:55:52;102.80;2227.20
26272;DHT22;13997;48.902;12.472;2023-11-19T05:58:27;102.80;2227.20
26272;DHT22;13997;48.902;12.472;2023-11-19T06:00:57;102.80;2227.20
26272;DHT22;13997;48.902;12.472;2023-11-19T06:03:23;102.80;2227.20
26272;DHT22;13997;48.902;12.472;2023-11-19T06:05:49;102.80;2227.20
26272;DHT22;13997;48.902;12.472;2023-11-19T06:08:15;102.80;2227.20
26272;DHT22;13997;48.902;12.472;2023-11-19T06:10:42;102.80;2227.20
26272;DHT22;13997;48.902;12.472;2023-11-19T06:13:08;102.80;2227.20
26272;DHT22;13997;48.902;12.472;2023-11-19T06:15:35;102.80;2227.20
26272;DHT22;13997;48.902;12.472;2023-11-19T06:18:01;102.80;2227.20
26272;DHT22;13997;48.902;12.472;2023-11-19T06:20:29;102.80;2227.20
26272;DHT22;13997;48.902;12.472;2023-11-19T06:22:56;102.80;2227.20
26272;DHT22;13997;48.902;12.472;2023-11-19T06:25:22;102.80;2227.20
26272;DHT22;13997;48.902;12.472;2023-11-19T06:27:49;102.80;2227.20
26272;DHT22;13997;48.902;12.472;2023-11-19T06:30:15;102.80;2227.20
26272;DHT22;13997;48.902;12.472;2023-11-19T06:32:41;102.80;2227.20
26272;DHT22;13997;48.902;12.472;2023-11-19T06:35:07;102.80;2227.20
26272;DHT22;13997;48.902;12.472;2023-11-19T06:37:34;102.80;2227.20
26272;DHT22;13997;48.902;12.472;2023-11-19T06:40:00;102.80;2227.20
26272;DHT22;13997;48.902;12.472;2023-11-19T06:42:26;102.80;2227.20
26272;DHT22;13997;48.902;12.472;2023-11-19T06:44:52;102.90;2227.20
26272;DHT22;13997;48.902;12.472;2023-11-19T06:47:18;102.90;2227.20
26272;DHT22;13997;48.902;12.472;2023-11-19T06:49:46;102.80;2227.20
26272;DHT22;13997;48.902;12.472;2023-11-19T06:52:12;102.90;2227.20
26272;DHT22;13997;48.902;12.472;2023-11-19T06:54:40;102.90;2227.20
26272;DHT22;13997;48.902;12.472;2023-11-19T06:57:06;102.90;2227.20
26272;DHT22;13997;48.902;12.472;2023-11-19T06:59:31;102.90;2227.20
26272;DHT22;13997;48.902;12.472;2023-11-19T07:01:57;102.90;2227.20
26272;DHT22;13997;48.902;12.472;2023-11-19T07:04:23;102.90;2227.20
26272;DHT22;13997;48.902;12.472;2023-11-19T07:06:48;102.90;2227.20
26272;DHT22;13997;48.902;12.472;2023-11-19T07:09:14;102.90;2227.20
26272;DHT22;13997;48.902;12.472;2023-11-19T07:11:41;102.90;2227.20
26272;DHT22;13997;48.902;12.472;2023-11-19T07:14:09;102.90;2227.20
26272;DHT22;13997;48.902;12.472;2023-11-19T07:16:36;102.90;2227.20
26272;DHT22;13997;48.902;12.472;2023-11-19T07:19:07;102.90;2227.20
26272;DHT22;13997;48.902;12.472;2023-11-19T07:21:32;102.90;2227.20
26272;DHT22;13997;48.902;12.472;2023-11-19T07:23:59;102.90;2227.20
26272;DHT22;13997;48.902;12.472;2023-11-19T07:26:24;102.90;2227.20
26272;DHT22;13997;48.902;12.472;2023-11-19T07:28:50;102.90;2227.20
26272;DHT22;13997;48.902;12.472;2023-11-19T07:31:16;102.90;2227.20
26272;DHT22;13997;48.902;12.472;2023-11-19T07:33:45;102.90;2227.20
26272;DHT22;13997;48.902;12.472;2023-11-19T07:36:11;102.90;2227.20
26272;DHT22;13997;48.902;12.472;2023-11-19T07:38:37;102.90;2227.20
26272;DHT22;13997;48.902;12.472;2023-11-19T07:41:05;102.90;2227.20
26272;DHT22;13997;48.902;12.472;2023-11-19T07:43:30;102.90;2227.20
26272;DHT22;13997;48.902;12.472;2023-11-19T07:45:56;103.00;2227.20
26272;DHT22;13997;48.902;12.472;2023-11-19T07:48:24;103.00;2227.20
26272;DHT22;13997;48.902;12.472;2023-11-19T07:50:50;102.90;2227.20
26272;DHT22;13997;48.902;12.472;2023-11-19T07:53:19;103.00;2227.20
26272;DHT22;13997;48.902;12.472;2023-11-19T07:55:45;103.00;2227.20
26272;DHT22;13997;48.902;12.472;2023-11-19T07:58:11;103.00;2227.20
26272;DHT22;13997;48.902;12.472;2023-11-19T08:00:38;103.00;2227.20
26272;DHT22;13997;48.902;12.472;2023-11-19T08:03:04;103.00;2227.20
26272;DHT22;13997;48.902;12.472;2023-11-19T08:05:30;103.00;2227.20
26272;DHT22;13997;48.902;12.472;2023-11-19T08:07:56;103.00;2227.20
26272;DHT22;13997;48.902;12.472;2023-11-19T08:10:22;103.00;2227.20
26272;DHT22;13997;48.902;12.472;2023-11-19T08:12:48;103.00;2227.20
26272;DHT22;13997;48.902;12.472;2023-11-19T08:15:13;103.00;2227.20
26272;DHT22;13997;48.902;12.472;2023-11-19T08:17:39;103.10;2227.20
26272;DHT22;13997;48.902;12.472;2023-11-19T08:20:05;103.10;2227.20
26272;DHT22;13997;48.902;12.472;2023-11-19T08:22:38;103.10;2227.20
26272;DHT22;13997;48.902;12.472;2023-11-19T08:25:05;103.10;2227.20
26272;DHT22;13997;48.902;12.472;2023-11-19T08:27:31;103.10;2227.20
26272;DHT22;13997;48.902;12.472;2023-11-19T08:29:56;103.10;2227.20
26272;DHT22;13997;48.902;12.472;2023-11-19T08:32:23;103.10;2227.20
26272;DHT22;13997;48.902;12.472;2023-11-19T08:34:49;103.10;2227.20
26272;DHT22;13997;48.902;12.472;2023-11-19T08:37:14;103.10;2227.20
26272;DHT22;13997;48.902;12.472;2023-11-19T08:39:40;103.10;2227.20
26272;DHT22;13997;48.902;12.472;2023-11-19T08:42:07;103.10;2227.20
26272;DHT22;13997;48.902;12.472;2023-11-19T08:44:33;103.20;2227.20
26272;DHT22;13997;48.902;12.472;2023-11-19T08:46:58;103.20;2227.20
26272;DHT22;13997;48.902;12.472;2023-11-19T08:49:24;103.20;2227.20
26272;DHT22;13997;48.902;12.472;2023-11-19T08:51:49;103.20;2227.20
26272;DHT22;13997;48.902;12.472;2023-11-19T08:54:15;103.20;2227.20
26272;DHT22;13997;48.902;12.472;2023-11-19T08:56:40;103.20;2227.20
26272;DHT22;13997;48.902;12.472;2023-11-19T08:59:06;103.20;2227.20
26272;DHT22;13997;48.902;12.472;2023-11-19T09:01:32;103.20;2227.20
26272;DHT22;13997;48.902;12.472;2023-11-19T09:03:57;103.30;2227.20
26272;DHT22;13997;48.902;12.472;2023-11-19T09:06:23;103.30;2227.20
26272;DHT22;13997;48.902;12.472;2023-11-19T09:08:49;103.30;2227.20
26272;DHT22;13997;48.902;12.472;2023-11-19T09:11:14;103.30;2227.20
26272;DHT22;13997;48.902;12.472;2023-11-19T09:13:40;103.30;2227.20
26272;DHT22;13997;48.902;12.472;2023-11-19T09:16:06;103.30;2227.20
26272;DHT22;13997;48.902;12.472;2023-11-19T09:18:31;103.30;2227.20
26272;DHT22;13997;48.902;12.472;2023-11-19T09:20:57;128.00;2252.80
26272;DHT22;13997;48.902;12.472;2023-11-19T09:23:23;128.00;2252.80
26272;DHT22;13997;48.902;12.472;2023-11-19T09:25:54;128.00;2252.80
26272;DHT22;13997;48.902;12.472;2023-11-19T09:28:20;128.00;2252.80
26272;DHT22;13997;48.902;12.472;2023-11-19T09:30:45;128.00;2252.80
26272;DHT22;13997;48.902;12.472;2023-11-19T09:33:11;128.00;2252.80
26272;DHT22;13997;48.902;12.472;2023-11-19T09:35:36;128.10;2252.80
26272;DHT22;13997;48.902;12.472;2023-11-19T09:38:02;128.10;2252.80
26272;DHT22;13997;48.902;12.472;2023-11-19T09:40:28;128.20;2252.80
26272;DHT22;13997;48.902;12.472;2023-11-19T09:42:54;128.20;2252.80
26272;DHT22;13997;48.902;12.472;2023-11-19T09:45:21;128.20;2252.80
26272;DHT22;13997;48.902;12.472;2023-11-19T09:47:47;128.20;2252.80
26272;DHT22;13997;48.902;12.472;2023-11-19T09:50:22;128.30;2252.80
26272;DHT22;13997;48.902;12.472;2023-11-19T09:52:48;128.30;2252.80
26272;DHT22;13997;48.902;12.472;2023-11-19T09:55:14;128.40;2252.80
26272;DHT22;13997;48.902;12.472;2023-11-19T09:57:40;128.40;2252.80
26272;DHT22;13997;48.902;12.472;2023-11-19T10:00:07;128.40;2252.80
26272;DHT22;13997;48.902;12.472;2023-11-19T10:02:33;128.50;2252.80
26272;DHT22;13997;48.902;12.472;2023-11-19T10:05:04;128.50;2252.80
26272;DHT22;13997;48.902;12.472;2023-11-19T10:07:32;128.60;2252.80
26272;DHT22;13997;48.902;12.472;2023-11-19T10:10:04;128.60;2252.80
26272;DHT22;13997;48.902;12.472;2023-11-19T10:12:30;128.60;2252.80
26272;DHT22;13997;48.902;12.472;2023-11-19T10:14:57;128.70;2252.80
26272;DHT22;13997;48.902;12.472;2023-11-19T10:17:36;128.80;2252.80
26272;DHT22;13997;48.902;12.472;2023-11-19T10:20:02;128.70;2252.80
26272;DHT22;13997;48.902;12.472;2023-11-19T10:22:29;128.70;2252.80
26272;DHT22;13997;48.902;12.472;2023-11-19T10:24:54;128.80;2252.80
26272;DHT22;13997;48.902;12.472;2023-11-19T10:27:20;128.80;2252.80
26272;DHT22;13997;48.902;12.472;2023-11-19T10:29:48;128.80;2252.80
26272;DHT22;13997;48.902;12.472;2023-11-19T10:32:14;128.90;2252.80
26272;DHT22;13997;48.902;12.472;2023-11-19T10:34:43;153.60;2252.80
26272;DHT22;13997;48.902;12.472;2023-11-19T10:37:09;153.60;2252.80
26272;DHT22;13997;48.902;12.472;2023-11-19T10:39:54;153.70;2252.80
26272;DHT22;13997;48.902;12.472;2023-11-19T10:42:20;153.70;2252.80
26272;DHT22;13997;48.902;12.472;2023-11-19T10:44:46;153.70;2252.80
26272;DHT22;13997;48.902;12.472;2023-11-19T10:47:14;153.70;2252.80
26272;DHT22;13997;48.902;12.472;2023-11-19T10:49:40;153.80;2252.80
26272;DHT22;13997;48.902;12.472;2023-11-19T10:52:08;153.80;2252.80
26272;DHT22;13997;48.902;12.472;2023-11-19T10:54:35;153.90;2252.80
26272;DHT22;13997;48.902;12.472;2023-11-19T10:57:02;153.90;2252.80
26272;DHT22;13997;48.902;12.472;2023-11-19T10:59:30;153.90;2252.80
26272;DHT22;13997;48.902;12.472;2023-11-19T11:02:02;153.90;2252.80
26272;DHT22;13997;48.902;12.472;2023-11-19T11:04:32;153.90;2252.80
26272;DHT22;13997;48.902;12.472;2023-11-19T11:07:00;154.00;2252.80
26272;DHT22;13997;48.902;12.472;2023-11-19T11:09:27;154.00;2252.80
26272;DHT22;13997;48.902;12.472;2023-11-19T11:11:54;154.00;2252.80
26272;DHT22;13997;48.902;12.472;2023-11-19T11:14:21;154.00;2252.80
26272;DHT22;13997;48.902;12.472;2023-11-19T11:16:48;154.10;2252.80
26272;DHT22;13997;48.902;12.472;2023-11-19T11:19:16;154.10;2252.80
26272;DHT22;13997;48.902;12.472;2023-11-19T11:21:44;154.10;2252.80
26272;DHT22;13997;48.902;12.472;2023-11-19T11:32:23;154.50;2252.80
26272;DHT22;13997;48.902;12.472;2023-11-19T11:37:44;179.30;2252.80
26272;DHT22;13997;48.902;12.472;2023-11-19T11:40:16;179.30;2252.80
26272;DHT22;13997;48.902;12.472;2023-11-19T11:42:46;179.30;2252.80
26272;DHT22;13997;48.902;12.472;2023-11-19T11:45:13;179.20;2252.80
26272;DHT22;13997;48.902;12.472;2023-11-19T11:50:20;179.30;2252.80
26272;DHT22;13997;48.902;12.472;2023-11-19T11:56:05;179.50;2252.80
26272;DHT22;13997;48.902;12.472;2023-11-19T11:58:29;179.70;2252.80
26272;DHT22;13997;48.902;12.472;2023-11-19T12:00:59;179.90;2252.80
26272;DHT22;13997;48.902;12.472;2023-11-19T12:03:28;180.00;2252.80
26272;DHT22;13997;48.902;12.472;2023-11-19T12:05:55;204.90;2252.80
26272;DHT22;13997;48.902;12.472;2023-11-19T12:08:26;205.00;2252.80
26272;DHT22;13997;48.902;12.472;2023-11-19T12:10:56;205.00;2252.80
26272;DHT22;13997;48.902;12.472;2023-11-19T12:13:42;205.00;2252.80
26272;DHT22;13997;48.902;12.472;2023-11-19T12:16:09;204.90;2252.80
26272;DHT22;13997;48.902;12.472;2023-11-19T12:18:35;204.90;2252.80
26272;DHT22;13997;48.902;12.472;2023-11-19T12:21:01;204.90;2252.80
26272;DHT22;13997;48.902;12.472;2023-11-19T12:23:29;204.80;2252.80
26272;DHT22;13997;48.902;12.472;2023-11-19T12:25:55;204.80;2252.80
26272;DHT22;13997;48.902;12.472;2023-11-19T12:28:21;204.80;2252.80
26272;DHT22;13997;48.902;12.472;2023-11-19T12:30:47;204.80;2252.80
26272;DHT22;13997;48.902;12.472;2023-11-19T12:33:14;204.80;2252.80
26272;DHT22;13997;48.902;12.472;2023-11-19T12:35:41;204.80;2252.80
26272;DHT22;13997;48.902;12.472;2023-11-19T12:38:07;204.80;2252.80
26272;DHT22;13997;48.902;12.472;2023-11-19T12:40:33;204.80;2252.80
26272;DHT22;13997;48.902;12.472;2023-11-19T12:42:59;204.80;2252.80
26272;DHT22;13997;48.902;12.472;2023-11-19T12:45:34;204.90;2252.80
26272;DHT22;13997;48.902;12.472;2023-11-19T12:48:09;205.00;2252.80
26272;DHT22;13997;48.902;12.472;2023-11-19T12:50:51;205.00;2252.80
26272;DHT22;13997;48.902;12.472;2023-11-19T12:53:18;205.00;2252.80
26272;DHT22;13997;48.902;12.472;2023-11-19T12:55:44;205.10;2252.80
26272;DHT22;13997;48.902;12.472;2023-11-19T12:58:10;205.10;2252.80
26272;DHT22;13997;48.902;12.472;2023-11-19T13:00:35;205.10;2252.80
26272;DHT22;13997;48.902;12.472;2023-11-19T13:03:01;205.20;2252.80
26272;DHT22;13997;48.902;12.472;2023-11-19T13:05:33;205.10;2252.80
26272;DHT22;13997;48.902;12.472;2023-11-19T13:10:29;205.10;2252.80
26272;DHT22;13997;48.902;12.472;2023-11-19T13:15:31;205.30;2252.80
26272;DHT22;13997;48.902;12.472;2023-11-19T13:17:57;205.40;2252.80
26272;DHT22;13997;48.902;12.472;2023-11-19T13:20:23;205.50;2252.80
26272;DHT22;13997;48.902;12.472;2023-11-19T13:22:59;205.50;2252.80
26272;DHT22;13997;48.902;12.472;2023-11-19T13:25:25;205.60;2252.80
26272;DHT22;13997;48.902;12.472;2023-11-19T13:27:51;205.60;2252.80
26272;DHT22;13997;48.902;12.472;2023-11-19T13:30:17;205.70;2252.80
26272;DHT22;13997;48.902;12.472;2023-11-19T13:32:43;230.40;2252.80
26272;DHT22;13997;48.902;12.472;2023-11-19T13:35:12;230.40;2252.80
26272;DHT22;13997;48.902;12.472;2023-11-19T13:37:38;230.40;2252.80
26272;DHT22;13997;48.902;12.472;2023-11-19T13:40:04;230.50;2252.80
26272;DHT22;13997;48.902;12.472;2023-11-19T13:42:30;230.40;2252.80
26272;DHT22;13997;48.902;12.472;2023-11-19T13:44:55;230.50;2252.80
26272;DHT22;13997;48.902;12.472;2023-11-19T13:47:21;230.50;2252.80
26272;DHT22;13997;48.902;12.472;2023-11-19T13:49:47;230.60;2252.80
26272;DHT22;13997;48.902;12.472;2023-11-19T13:52:13;230.60;2252.80
26272;DHT22;13997;48.902;12.472;2023-11-19T13:54:38;230.60;2252.80
26272;DHT22;13997;48.902;12.472;2023-11-19T13:57:04;230.60;2252.80
26272;DHT22;13997;48.902;12.472;2023-11-19T13:59:31;230.60;2252.80
26272;DHT22;13997;48.902;12.472;2023-11-19T14:01:58;230.60;2252.80
26272;DHT22;13997;48.902;12.472;2023-11-19T14:04:23;230.60;2252.80
26272;DHT22;13997;48.902;12.472;2023-11-19T14:06:49;230.60;2252.80
26272;DHT22;13997;48.902;12.472;2023-11-19T14:09:15;230.70;2252.80
26272;DHT22;13997;48.902;12.472;2023-11-19T14:11:40;230.70;2252.80
26272;DHT22;13997;48.902;12.472;2023-11-19T14:14:07;230.70;2252.80
26272;DHT22;13997;48.902;12.472;2023-11-19T14:16:33;230.70;2252.80
26272;DHT22;13997;48.902;12.472;2023-11-19T14:19:00;230.70;2252.80
26272;DHT22;13997;48.902;12.472;2023-11-19T14:21:25;230.80;2252.80
26272;DHT22;13997;48.902;12.472;2023-11-19T14:23:52;231.10;2252.80
26272;DHT22;13997;48.902;12.472;2023-11-19T14:26:18;256.10;2252.80
26272;DHT22;13997;48.902;12.472;2023-11-19T14:28:44;256.50;2252.80
26272;DHT22;13997;48.902;12.472;2023-11-19T14:34:35;256.90;2252.80
26272;DHT22;13997;48.902;12.472;2023-11-19T14:37:01;281.60;2278.40
26272;DHT22;13997;48.902;12.472;2023-11-19T14:39:27;281.60;2278.40
26272;DHT22;13997;48.902;12.472;2023-11-19T14:41:54;281.60;2278.40
26272;DHT22;13997;48.902;12.472;2023-11-19T14:44:23;281.60;2278.40
26272;DHT22;13997;48.902;12.472;2023-11-19T14:46:49;281.60;2278.40
26272;DHT22;13997;48.902;12.472;2023-11-19T14:49:15;281.60;2278.40
26272;DHT22;13997;48.902;12.472;2023-11-19T14:51:41;281.60;2278.40
26272;DHT22;13997;48.902;12.472;2023-11-19T14:54:06;281.60;2278.40
26272;DHT22;13997;48.902;12.472;2023-11-19T14:56:32;256.90;2252.80
26272;DHT22;13997;48.902;12.472;2023-11-19T14:58:58;256.80;2252.80